createdAt,value
2023-02-23T00:00:46.138Z,10.27
2023-02-23T00:05:50.020Z,9.68
2023-02-23T00:10:59.416Z,9.57
2023-02-23T00:16:06.991Z,10.25
2023-02-23T00:21:10.833Z,9.53
2023-02-23T00:26:14.819Z,9.02
2023-02-23T00:31:19.993Z,8.43
2023-02-23T00:36:27.539Z,9.40
2023-02-23T00:41:31.336Z,9.98
2023-02-23T00:46:35.581Z,9.20
2023-02-23T00:51:39.950Z,9.82
2023-02-23T00:56:44.169Z,8.43
2023-02-23T01:01:48.268Z,10.38
2023-02-23T01:06:52.223Z,9.25
2023-02-23T01:11:58.050Z,9.20
2023-02-23T01:17:01.882Z,8.77
2023-02-23T01:22:06.189Z,8.80
2023-02-23T01:27:10.010Z,9.77
2023-02-23T01:32:15.030Z,9.13
2023-02-23T01:37:18.870Z,10.13
2023-02-23T01:42:23.614Z,9.88
2023-02-23T01:47:28.169Z,9.82
2023-02-23T01:52:35.629Z,11.18
2023-02-23T01:57:42.231Z,9.93
2023-02-23T02:02:49.468Z,11.40
2023-02-23T02:07:59.700Z,11.10
2023-02-23T02:13:06.931Z,11.02
2023-02-23T02:18:38.913Z,9.73
2023-02-23T02:23:46.866Z,9.77
2023-02-23T02:29:28.359Z,8.70
2023-02-23T02:34:51.265Z,10.10
2023-02-23T02:40:17.210Z,9.23
2023-02-23T02:45:24.132Z,8.23
2023-02-23T02:51:06.684Z,8.50
2023-02-23T02:56:12.271Z,8.52
2023-02-23T03:01:38.181Z,8.20
2023-02-23T03:07:07.828Z,8.00
2023-02-23T03:12:45.313Z,7.32
2023-02-23T03:18:19.213Z,8.20
2023-02-23T03:24:09.127Z,8.18
2023-02-23T03:29:37.335Z,6.60
2023-02-23T03:35:09.936Z,8.68
2023-02-23T03:40:45.564Z,6.88
2023-02-23T03:46:09.203Z,7.97
2023-02-23T03:51:37.134Z,8.38
2023-02-23T03:57:04.469Z,7.90
2023-02-23T04:02:29.569Z,6.72
2023-02-23T04:07:54.148Z,7.60
2023-02-23T04:13:31.577Z,7.63
2023-02-23T04:18:37.920Z,7.32
2023-02-23T04:23:43.575Z,7.32
2023-02-23T04:28:47.382Z,6.30
2023-02-23T04:33:52.038Z,6.35
2023-02-23T04:38:55.966Z,6.88
2023-02-23T04:43:59.787Z,7.40
2023-02-23T04:49:04.919Z,7.68
2023-02-23T04:54:08.925Z,6.82
2023-02-23T04:59:13.158Z,7.13
2023-02-23T05:04:16.983Z,6.55
2023-02-23T05:09:21.325Z,6.80
2023-02-23T05:14:27.145Z,6.68
2023-02-23T05:19:31.015Z,6.70
2023-02-23T05:24:35.061Z,7.50
2023-02-23T05:29:39.004Z,6.72
2023-02-23T05:34:43.023Z,7.32
2023-02-23T05:39:48.242Z,7.15
2023-02-23T05:44:52.209Z,14.57
2023-02-23T05:49:56.182Z,7.32
2023-02-23T05:55:00.280Z,5.95
2023-02-23T06:00:06.378Z,7.13
2023-02-23T06:05:12.463Z,6.47
2023-02-23T06:10:17.460Z,7.32
2023-02-23T06:15:21.224Z,6.93
2023-02-23T06:20:25.151Z,6.30
2023-02-23T06:25:28.833Z,6.72
2023-02-23T06:30:32.866Z,5.75
2023-02-23T06:35:36.998Z,5.72
2023-02-23T06:40:42.356Z,5.88
2023-02-23T06:45:48.811Z,5.07
2023-02-23T06:50:54.854Z,6.03
2023-02-23T06:55:58.819Z,5.63
2023-02-23T07:01:02.875Z,5.50
2023-02-23T07:06:07.596Z,5.80
2023-02-23T07:11:14.656Z,5.45
2023-02-23T07:16:18.571Z,5.43
2023-02-23T07:21:23.343Z,5.72
2023-02-23T07:26:27.382Z,5.22
2023-02-23T07:31:31.541Z,5.28
2023-02-23T07:36:35.969Z,5.50
2023-02-23T07:41:39.769Z,5.70
2023-02-23T07:46:53.797Z,6.35
2023-02-23T07:51:57.601Z,5.68
2023-02-23T07:57:01.983Z,7.60
2023-02-23T08:02:06.040Z,7.68
2023-02-23T08:07:11.222Z,7.28
2023-02-23T08:12:16.543Z,6.50
2023-02-23T08:17:20.722Z,7.20
2023-02-23T08:22:24.743Z,6.82
2023-02-23T08:27:28.522Z,6.53
2023-02-23T08:32:37.596Z,6.72
2023-02-23T08:37:43.510Z,6.75
2023-02-23T08:42:52.990Z,7.72
2023-02-23T08:47:57.461Z,8.50
2023-02-23T08:53:01.304Z,6.43
2023-02-23T08:58:10.037Z,7.15
2023-02-23T09:03:13.909Z,7.63
2023-02-23T09:08:17.723Z,8.60
2023-02-23T09:13:21.697Z,8.43
2023-02-23T09:18:30.322Z,8.07
2023-02-23T09:23:37.953Z,8.27
2023-02-23T09:28:41.992Z,8.35
2023-02-23T09:33:46.021Z,8.93
2023-02-23T09:38:57.173Z,9.73
2023-02-23T09:44:14.366Z,9.20
2023-02-23T09:49:22.652Z,8.57
2023-02-23T09:54:31.365Z,9.68
2023-02-23T09:59:36.883Z,12.30
2023-02-23T10:04:50.293Z,9.80
2023-02-23T10:10:27.176Z,9.82
2023-02-23T10:15:42.937Z,11.10
2023-02-23T10:21:14.980Z,10.27
2023-02-23T10:26:25.248Z,9.73
2023-02-23T10:31:43.035Z,11.43
2023-02-23T10:37:03.069Z,11.07
2023-02-23T10:42:15.743Z,10.63
2023-02-23T10:47:27.621Z,10.63
2023-02-23T10:52:32.689Z,11.82
2023-02-23T10:57:40.712Z,11.82
2023-02-23T11:02:46.689Z,13.85
2023-02-23T11:07:50.521Z,14.32
2023-02-23T11:12:54.745Z,13.88
2023-02-23T11:18:01.556Z,16.88
2023-02-23T11:23:31.250Z,18.48
2023-02-23T11:28:37.755Z,17.08
2023-02-23T11:33:41.857Z,16.58
2023-02-23T11:38:48.533Z,17.35
2023-02-23T11:43:57.619Z,18.17
2023-02-23T11:49:07.212Z,19.60
2023-02-23T11:54:28.234Z,20.05
2023-02-23T11:59:40.411Z,21.52
2023-02-23T12:04:48.583Z,19.13
2023-02-23T12:10:07.288Z,18.33
2023-02-23T12:15:29.472Z,18.50
2023-02-23T12:20:40.701Z,18.77
2023-02-23T12:25:53.808Z,19.73
2023-02-23T12:31:05.925Z,18.77
2023-02-23T12:36:36.188Z,17.45
2023-02-23T12:42:18.577Z,18.17
2023-02-23T12:47:42.088Z,17.30
2023-02-23T12:52:59.474Z,18.00
2023-02-23T12:58:24.219Z,18.90
2023-02-23T13:03:49.425Z,18.17
2023-02-23T13:09:15.658Z,21.00
2023-02-23T13:14:59.540Z,19.63
2023-02-23T13:20:20.763Z,21.98
2023-02-23T13:25:39.110Z,21.90
2023-02-23T13:30:48.414Z,20.83
2023-02-23T13:41:13.784Z,22.27
2023-02-23T13:46:39.954Z,21.60
2023-02-23T13:52:00.986Z,22.80
2023-02-23T13:57:14.188Z,22.60
2023-02-23T14:02:40.000Z,19.85
2023-02-23T14:07:46.498Z,21.23
2023-02-23T14:13:18.728Z,20.98
2023-02-23T14:18:22.484Z,20.35
2023-02-23T14:23:27.304Z,19.52
2023-02-23T14:28:34.399Z,21.23
2023-02-23T14:33:52.915Z,19.83
2023-02-23T14:39:03.353Z,20.03
2023-02-23T14:44:30.047Z,19.35
2023-02-23T14:49:44.596Z,17.02
2023-02-23T14:54:49.077Z,18.85
2023-02-23T15:00:08.480Z,16.65
2023-02-23T15:10:30.833Z,16.38
2023-02-23T15:15:34.910Z,15.18
2023-02-23T15:20:38.771Z,16.63
2023-02-23T15:25:45.195Z,14.80
2023-02-23T15:30:51.601Z,15.13
2023-02-23T15:35:57.140Z,13.68
2023-02-23T15:41:05.124Z,14.02
2023-02-23T15:46:10.400Z,12.68
2023-02-23T15:51:30.670Z,12.65
2023-02-23T15:56:35.815Z,12.38
2023-02-23T16:01:45.452Z,11.70
2023-02-23T16:07:07.133Z,12.13
2023-02-23T16:12:18.191Z,10.98
2023-02-23T16:17:35.308Z,11.38
2023-02-23T16:22:40.665Z,11.70
2023-02-23T16:27:46.609Z,10.98
2023-02-23T16:33:08.321Z,10.70
2023-02-23T16:38:14.481Z,9.52
2023-02-23T16:43:18.341Z,10.32
2023-02-23T16:48:23.943Z,9.50
2023-02-23T16:53:28.101Z,9.70
2023-02-23T16:58:36.765Z,9.07
2023-02-23T17:03:47.394Z,9.60
2023-02-23T17:08:58.750Z,8.93
2023-02-23T17:14:03.038Z,8.77
2023-02-23T17:19:08.103Z,8.77
2023-02-23T17:24:11.958Z,9.15
2023-02-23T17:29:15.775Z,9.52
2023-02-23T17:34:19.625Z,10.60
2023-02-23T17:39:28.690Z,10.25
2023-02-23T17:44:32.515Z,10.40
2023-02-23T17:49:36.741Z,9.70
2023-02-23T17:54:40.776Z,10.43
2023-02-23T17:59:44.750Z,9.88
2023-02-23T18:04:50.585Z,9.77
2023-02-23T18:09:54.653Z,10.88
2023-02-23T18:14:59.092Z,10.27
2023-02-23T18:20:03.029Z,10.07
2023-02-23T18:25:07.601Z,10.95
2023-02-23T18:30:12.148Z,10.52
2023-02-23T18:35:16.278Z,9.77
2023-02-23T18:40:24.574Z,10.02
2023-02-23T18:45:28.728Z,9.77
2023-02-23T18:50:32.747Z,10.43
2023-02-23T18:55:38.540Z,8.95
2023-02-23T19:00:43.746Z,9.98
2023-02-23T19:05:53.876Z,8.82
2023-02-23T19:10:58.813Z,9.02
2023-02-23T19:16:10.090Z,9.57
2023-02-23T19:21:15.765Z,8.77
2023-02-23T19:26:20.248Z,9.98
2023-02-23T19:31:26.690Z,9.75
2023-02-23T19:36:32.394Z,9.40
2023-02-23T19:41:36.490Z,9.85
2023-02-23T19:46:40.680Z,8.95
2023-02-23T19:51:45.828Z,10.27
2023-02-23T19:56:50.534Z,9.23
2023-02-23T20:01:54.572Z,9.65
2023-02-23T20:06:58.586Z,9.27
2023-02-23T20:12:02.487Z,7.85
2023-02-23T20:17:07.205Z,9.38
2023-02-23T20:22:10.975Z,8.30
2023-02-23T20:27:14.913Z,9.07
2023-02-23T20:32:18.790Z,8.27
2023-02-23T20:37:32.008Z,8.48
2023-02-23T20:42:35.868Z,8.25
2023-02-23T20:47:40.030Z,9.10
2023-02-23T20:52:45.061Z,9.00
2023-02-23T20:57:49.446Z,8.60
2023-02-23T21:02:56.191Z,9.55
2023-02-23T21:08:02.345Z,8.32
2023-02-23T21:13:06.896Z,9.13
2023-02-23T21:18:11.304Z,9.05
2023-02-23T21:23:18.268Z,9.30
2023-02-23T21:28:22.843Z,8.85
2023-02-23T21:33:26.891Z,9.27
2023-02-23T21:38:30.796Z,8.82
2023-02-23T21:43:39.753Z,9.57
2023-02-23T21:48:44.350Z,9.75
2023-02-23T21:53:49.842Z,9.30
2023-02-23T21:58:56.737Z,9.45
2023-02-23T22:04:00.533Z,10.82
2023-02-23T22:09:07.418Z,8.88
2023-02-23T22:14:11.940Z,9.07
2023-02-23T22:19:16.702Z,9.30
2023-02-23T22:24:20.526Z,8.85
2023-02-23T22:29:26.091Z,8.57
2023-02-23T22:34:29.879Z,8.35
2023-02-23T22:39:34.288Z,8.48
2023-02-23T22:44:39.897Z,8.63
2023-02-23T22:49:43.574Z,9.13
2023-02-23T22:54:48.682Z,8.18
2023-02-23T23:00:01.192Z,8.77
2023-02-23T23:05:08.748Z,6.78
2023-02-23T23:10:13.545Z,8.80
2023-02-23T23:15:19.972Z,6.85
2023-02-23T23:20:26.525Z,7.28
2023-02-23T23:25:30.324Z,7.47
2023-02-23T23:30:36.056Z,6.82
2023-02-23T23:35:39.875Z,8.05
2023-02-23T23:40:47.637Z,6.88
2023-02-23T23:45:52.400Z,7.10
2023-02-23T23:50:56.960Z,6.95
2023-02-23T23:56:06.986Z,6.95
